createdAt,value
2022-11-17T00:00:33.776Z,3.93
2022-11-17T00:03:00.652Z,3.33
2022-11-17T00:05:27.593Z,3.30
2022-11-17T00:07:54.470Z,3.93
2022-11-17T00:10:21.425Z,4.63
2022-11-17T00:13:06.896Z,3.97
2022-11-17T00:15:34.011Z,3.50
2022-11-17T00:18:19.396Z,4.33
2022-11-17T00:21:04.854Z,6.43
2022-11-17T00:23:52.038Z,3.77
2022-11-17T00:26:30.425Z,3.43
2022-11-17T00:29:02.385Z,3.50
2022-11-17T00:31:49.863Z,3.87
2022-11-17T00:34:19.300Z,4.40
2022-11-17T00:36:48.988Z,3.93
2022-11-17T00:39:18.330Z,5.20
2022-11-17T00:41:45.589Z,4.53
2022-11-17T00:44:12.564Z,5.60
2022-11-17T00:46:40.001Z,5.73
2022-11-17T00:49:08.095Z,4.80
2022-11-17T00:51:35.862Z,5.37
2022-11-17T00:54:03.571Z,4.33
2022-11-17T00:56:31.082Z,4.33
2022-11-17T00:58:58.124Z,6.80
2022-11-17T01:01:25.172Z,4.07
2022-11-17T01:04:02.862Z,5.27
2022-11-17T01:06:42.458Z,5.27
2022-11-17T01:09:16.116Z,3.93
2022-11-17T01:11:43.995Z,4.60
2022-11-17T01:14:32.697Z,4.07
2022-11-17T01:16:59.582Z,3.73
2022-11-17T01:19:26.558Z,3.77
2022-11-17T01:21:53.427Z,4.43
2022-11-17T01:24:20.392Z,3.97
2022-11-17T01:26:47.273Z,4.83
2022-11-17T01:29:17.215Z,3.57
2022-11-17T01:31:45.363Z,3.27
2022-11-17T01:34:12.388Z,3.57
2022-11-17T01:37:00.354Z,4.70
2022-11-17T01:39:28.745Z,3.47
2022-11-17T01:41:56.570Z,4.10
2022-11-17T01:44:57.615Z,3.57
2022-11-17T01:47:27.956Z,4.23
2022-11-17T01:50:06.985Z,3.63
2022-11-17T01:52:36.820Z,4.47
2022-11-17T01:55:04.433Z,3.87
2022-11-17T01:57:39.275Z,3.60
2022-11-17T02:00:09.273Z,3.27
2022-11-17T02:02:40.099Z,3.80
2022-11-17T02:05:22.077Z,3.10
2022-11-17T02:07:52.656Z,2.70
2022-11-17T02:10:19.577Z,3.03
2022-11-17T02:12:48.078Z,3.90
2022-11-17T02:15:15.051Z,3.03
2022-11-17T02:17:43.289Z,4.17
2022-11-17T02:20:17.910Z,4.70
2022-11-17T02:22:44.797Z,3.23
2022-11-17T02:25:33.216Z,2.50
2022-11-17T02:28:15.641Z,2.47
2022-11-17T02:30:57.668Z,2.73
2022-11-17T02:33:48.359Z,2.77
2022-11-17T02:36:29.477Z,2.63
2022-11-17T02:38:59.163Z,2.67
2022-11-17T02:41:31.315Z,1.80
2022-11-17T02:44:06.806Z,3.03
2022-11-17T02:46:40.537Z,2.00
2022-11-17T02:49:23.349Z,1.87
2022-11-17T02:51:54.363Z,2.53
2022-11-17T02:54:23.597Z,2.60
2022-11-17T02:56:50.596Z,4.23
2022-11-17T02:59:21.542Z,2.93
2022-11-17T03:02:16.324Z,2.30
2022-11-17T03:05:05.667Z,5.63
2022-11-17T03:07:50.832Z,3.40
2022-11-17T03:10:38.621Z,1.47
2022-11-17T03:13:23.707Z,1.37
2022-11-17T03:16:02.589Z,1.70
2022-11-17T03:18:30.524Z,2.17
2022-11-17T03:21:05.062Z,2.53
2022-11-17T03:23:45.015Z,2.87
2022-11-17T03:26:15.420Z,2.97
2022-11-17T03:28:46.525Z,2.80
2022-11-17T03:31:15.731Z,2.87
2022-11-17T03:33:44.994Z,5.00
2022-11-17T03:36:14.841Z,4.93
2022-11-17T03:38:51.936Z,3.77
2022-11-17T03:41:19.681Z,3.80
2022-11-17T03:43:51.811Z,5.43
2022-11-17T03:46:21.049Z,4.40
2022-11-17T03:48:56.945Z,3.30
2022-11-17T03:51:26.229Z,3.90
2022-11-17T03:53:54.685Z,4.00
2022-11-17T03:56:40.233Z,4.90
2022-11-17T03:59:17.252Z,3.40
2022-11-17T04:01:44.402Z,3.83
2022-11-17T04:04:20.160Z,3.77
2022-11-17T04:06:48.179Z,3.63
2022-11-17T04:09:17.638Z,3.53
2022-11-17T04:12:06.813Z,4.17
2022-11-17T04:14:54.051Z,3.63
2022-11-17T04:17:21.037Z,5.63
2022-11-17T04:19:48.700Z,4.33
2022-11-17T04:22:15.581Z,4.83
2022-11-17T04:24:42.488Z,3.50
2022-11-17T04:27:27.958Z,3.27
2022-11-17T04:29:54.838Z,4.03
2022-11-17T04:32:21.827Z,3.20
2022-11-17T04:34:48.695Z,3.17
2022-11-17T04:37:18.372Z,2.70
2022-11-17T04:39:45.795Z,3.43
2022-11-17T04:42:13.058Z,3.40
2022-11-17T04:44:40.029Z,3.27
2022-11-17T04:47:07.156Z,3.13
2022-11-17T04:49:34.335Z,2.13
2022-11-17T04:52:01.301Z,2.33
2022-11-17T04:54:28.468Z,2.13
2022-11-17T04:56:56.105Z,2.27
2022-11-17T04:59:23.747Z,2.17
2022-11-17T05:01:50.676Z,1.90
2022-11-17T05:04:39.588Z,2.73
2022-11-17T05:07:07.856Z,3.73
2022-11-17T05:09:35.068Z,2.43
2022-11-17T05:12:20.444Z,2.37
2022-11-17T05:14:49.216Z,3.13
2022-11-17T05:17:16.651Z,3.30
2022-11-17T05:19:45.553Z,3.50
2022-11-17T05:22:36.076Z,3.53
2022-11-17T05:25:04.159Z,4.37
2022-11-17T05:27:31.106Z,4.20
2022-11-17T05:29:58.005Z,3.93
2022-11-17T05:32:24.952Z,3.77
2022-11-17T05:34:52.121Z,4.67
2022-11-17T05:37:19.267Z,4.53
2022-11-17T05:39:46.145Z,4.53
2022-11-17T05:42:13.087Z,4.03
2022-11-17T05:44:40.090Z,4.23
2022-11-17T05:47:07.148Z,5.10
2022-11-17T05:49:34.007Z,4.83
2022-11-17T05:52:00.970Z,5.60
2022-11-17T05:54:27.874Z,5.00
2022-11-17T05:57:03.681Z,4.73
2022-11-17T05:59:35.928Z,5.80
2022-11-17T06:02:08.071Z,5.60
2022-11-17T06:04:35.273Z,7.37
2022-11-17T06:07:02.591Z,6.30
2022-11-17T06:09:33.335Z,6.00
2022-11-17T06:12:05.541Z,6.17
2022-11-17T06:14:34.528Z,7.07
2022-11-17T06:17:21.924Z,7.53
2022-11-17T06:19:54.940Z,6.10
2022-11-17T06:22:21.944Z,6.90
2022-11-17T06:24:48.983Z,8.27
2022-11-17T06:27:17.317Z,8.87
2022-11-17T06:29:45.431Z,8.07
2022-11-17T06:32:17.058Z,7.17
2022-11-17T06:34:51.941Z,7.30
2022-11-17T06:37:22.136Z,7.90
2022-11-17T06:39:49.031Z,6.93
2022-11-17T06:42:15.998Z,7.13
2022-11-17T06:44:43.612Z,6.30
2022-11-17T06:47:10.583Z,7.07
2022-11-17T06:49:37.559Z,8.30
2022-11-17T06:52:04.509Z,8.00
2022-11-17T06:54:31.464Z,7.07
2022-11-17T06:56:58.728Z,6.97
2022-11-17T06:59:25.745Z,5.97
2022-11-17T07:01:52.969Z,5.97
2022-11-17T07:04:20.011Z,7.10
2022-11-17T07:06:46.916Z,5.67
2022-11-17T07:09:13.853Z,5.43
2022-11-17T07:11:40.819Z,6.13
2022-11-17T07:14:07.931Z,5.43
2022-11-17T07:16:34.988Z,7.27
2022-11-17T07:19:03.808Z,5.70
2022-11-17T07:21:31.272Z,4.87
2022-11-17T07:23:58.272Z,7.33
2022-11-17T07:26:25.417Z,5.53
2022-11-17T07:28:52.369Z,7.03
2022-11-17T07:31:19.360Z,5.60
2022-11-17T07:33:46.522Z,6.20
2022-11-17T07:36:17.351Z,6.03
2022-11-17T07:38:44.341Z,6.57
2022-11-17T07:41:14.177Z,5.83
2022-11-17T07:43:41.331Z,5.70
2022-11-17T07:46:12.276Z,5.67
2022-11-17T07:48:40.255Z,6.33
2022-11-17T07:51:07.462Z,5.33
2022-11-17T07:53:35.401Z,5.13
2022-11-17T07:56:04.384Z,6.63
2022-11-17T07:58:31.645Z,6.23
2022-11-17T08:00:58.659Z,4.47
2022-11-17T08:03:25.780Z,7.77
2022-11-17T08:05:53.555Z,4.93
2022-11-17T08:08:20.533Z,4.37
2022-11-17T08:10:47.523Z,5.50
2022-11-17T08:13:15.578Z,6.47
2022-11-17T08:15:42.606Z,4.87
2022-11-17T08:18:09.617Z,5.83
2022-11-17T08:20:36.715Z,5.23
2022-11-17T08:23:03.886Z,5.67
2022-11-17T08:25:30.968Z,5.20
2022-11-17T08:27:58.423Z,7.60
2022-11-17T08:30:26.428Z,6.67
2022-11-17T08:32:54.611Z,6.27
2022-11-17T08:35:25.021Z,6.13
2022-11-17T08:37:53.094Z,4.80
2022-11-17T08:40:20.557Z,5.77
2022-11-17T08:42:47.638Z,5.20
2022-11-17T08:45:14.812Z,5.17
2022-11-17T08:47:41.838Z,7.10
2022-11-17T08:50:09.723Z,6.00
2022-11-17T08:52:36.799Z,5.87
2022-11-17T08:55:05.888Z,6.53
2022-11-17T08:57:33.515Z,5.33
2022-11-17T09:00:01.337Z,5.13
2022-11-17T09:02:28.780Z,5.87
2022-11-17T09:04:55.947Z,5.63
2022-11-17T09:07:23.068Z,6.03
2022-11-17T09:09:50.161Z,4.60
2022-11-17T09:12:19.066Z,5.60
2022-11-17T09:14:46.114Z,5.00
2022-11-17T09:17:13.124Z,4.63
2022-11-17T09:19:40.093Z,4.27
2022-11-17T09:22:07.163Z,4.07
2022-11-17T09:24:34.176Z,3.93
2022-11-17T09:27:03.111Z,3.50
2022-11-17T09:29:30.904Z,3.93
2022-11-17T09:31:57.940Z,4.97
2022-11-17T09:34:25.245Z,3.60
2022-11-17T09:36:52.173Z,3.43
2022-11-17T09:39:19.145Z,3.17
2022-11-17T09:41:48.900Z,3.60
2022-11-17T09:44:24.576Z,2.67
2022-11-17T09:46:54.287Z,2.80
2022-11-17T09:49:38.790Z,3.37
2022-11-17T09:53:07.495Z,2.80
2022-11-17T09:55:38.887Z,3.30
2022-11-17T09:58:20.163Z,3.33
2022-11-17T10:00:50.337Z,2.40
2022-11-17T10:03:22.224Z,1.57
2022-11-17T10:05:50.466Z,1.70
2022-11-17T10:08:20.768Z,1.43
2022-11-17T10:10:52.058Z,2.20
2022-11-17T10:13:34.395Z,1.53
2022-11-17T10:16:07.427Z,1.73
2022-11-17T10:18:38.765Z,2.00
2022-11-17T10:21:07.243Z,2.00
2022-11-17T10:23:42.853Z,2.47
2022-11-17T10:26:15.163Z,3.73
2022-11-17T10:28:42.848Z,3.27
2022-11-17T10:31:18.297Z,1.57
2022-11-17T10:33:48.737Z,2.00
2022-11-17T10:36:31.910Z,3.33
2022-11-17T10:39:00.701Z,1.27
2022-11-17T10:41:40.590Z,4.57
2022-11-17T10:44:32.202Z,3.43
2022-11-17T10:47:04.302Z,3.53
2022-11-17T10:49:35.090Z,4.50
2022-11-17T10:52:15.271Z,2.00
2022-11-17T10:54:42.672Z,2.83
2022-11-17T10:57:19.997Z,2.27
2022-11-17T10:59:57.124Z,1.40
2022-11-17T11:02:32.128Z,1.73
2022-11-17T11:05:15.076Z,4.77
2022-11-17T11:07:42.918Z,1.07
2022-11-17T11:10:25.151Z,3.17
2022-11-17T11:13:17.028Z,2.30
2022-11-17T11:15:45.254Z,4.73
2022-11-17T11:18:16.727Z,2.67
2022-11-17T11:21:07.290Z,3.33
2022-11-17T11:23:40.289Z,2.63
2022-11-17T11:26:10.003Z,4.77
2022-11-17T11:28:54.255Z,4.70
2022-11-17T11:31:57.018Z,1.77
2022-11-17T11:34:34.917Z,2.87
2022-11-17T11:37:08.728Z,3.27
2022-11-17T11:40:09.661Z,3.87
2022-11-17T11:42:39.340Z,2.83
2022-11-17T11:45:38.723Z,4.13
2022-11-17T11:48:28.294Z,3.83
2022-11-17T11:51:00.144Z,6.80
2022-11-17T11:53:54.761Z,3.53
2022-11-17T11:56:35.990Z,4.30
2022-11-17T11:59:30.649Z,4.00
2022-11-17T12:02:12.744Z,5.77
2022-11-17T12:04:57.420Z,5.83
2022-11-17T12:07:31.225Z,2.13
2022-11-17T12:10:17.070Z,3.03
2022-11-17T12:12:46.332Z,3.10
2022-11-17T12:15:34.994Z,2.30
2022-11-17T12:18:04.071Z,4.77
2022-11-17T12:20:30.940Z,4.00
2022-11-17T12:23:21.970Z,5.80
2022-11-17T12:25:54.283Z,2.90
2022-11-17T12:28:38.307Z,5.93
2022-11-17T12:31:26.265Z,5.70
2022-11-17T12:33:53.154Z,5.73
2022-11-17T12:36:31.761Z,5.83
2022-11-17T12:39:01.252Z,4.97
2022-11-17T12:41:47.046Z,7.33
2022-11-17T12:44:32.455Z,4.30
2022-11-17T12:47:17.904Z,7.30
2022-11-17T12:50:14.363Z,6.53
2022-11-17T12:52:50.273Z,8.80
2022-11-17T12:55:31.166Z,5.30
2022-11-17T12:58:10.347Z,3.97
2022-11-17T13:00:53.708Z,5.77
2022-11-17T13:03:55.003Z,6.23
2022-11-17T13:06:35.595Z,5.90
2022-11-17T13:09:07.492Z,6.60
2022-11-17T13:11:35.261Z,7.80
2022-11-17T13:14:15.165Z,6.70
2022-11-17T13:16:52.201Z,4.80
2022-11-17T13:19:28.085Z,4.43
2022-11-17T13:22:17.057Z,4.80
2022-11-17T13:24:48.984Z,7.40
2022-11-17T13:27:22.906Z,5.50
2022-11-17T13:29:50.797Z,6.07
2022-11-17T13:32:21.294Z,5.97
2022-11-17T13:34:53.065Z,8.37
2022-11-17T13:37:24.947Z,5.67
2022-11-17T13:40:20.884Z,5.47
2022-11-17T13:42:48.490Z,8.43
2022-11-17T13:45:16.485Z,8.73
2022-11-17T13:47:46.775Z,7.57
2022-11-17T13:50:31.587Z,6.27
2022-11-17T13:52:59.706Z,8.43
2022-11-17T13:55:28.106Z,6.17
2022-11-17T13:58:04.277Z,7.60
2022-11-17T14:00:32.316Z,5.63
2022-11-17T14:03:01.945Z,7.13
2022-11-17T14:05:33.562Z,7.63
2022-11-17T14:08:23.414Z,7.77
2022-11-17T14:10:50.703Z,9.47
2022-11-17T14:13:17.561Z,6.37
2022-11-17T14:15:53.746Z,8.60
2022-11-17T14:18:34.255Z,7.43
2022-11-17T14:21:10.378Z,8.00
2022-11-17T14:23:37.618Z,6.83
2022-11-17T14:26:05.267Z,8.30
2022-11-17T14:28:32.128Z,6.13
2022-11-17T14:30:59.015Z,6.67
2022-11-17T14:33:26.312Z,4.90
2022-11-17T14:35:55.908Z,10.33
2022-11-17T14:38:23.458Z,11.90
2022-11-17T14:40:52.161Z,8.17
2022-11-17T14:43:20.916Z,9.53
2022-11-17T14:45:48.873Z,9.43
2022-11-17T14:48:19.258Z,10.40
2022-11-17T14:50:47.870Z,7.83
2022-11-17T14:53:15.088Z,6.27
2022-11-17T14:55:42.061Z,6.90
2022-11-17T14:58:09.986Z,6.90
2022-11-17T15:00:37.286Z,6.53
2022-11-17T15:03:04.606Z,7.17
2022-11-17T15:05:31.973Z,6.10
2022-11-17T15:07:59.031Z,7.10
2022-11-17T15:10:26.001Z,7.63
2022-11-17T15:12:52.941Z,6.30
2022-11-17T15:15:19.991Z,7.20
2022-11-17T15:17:46.868Z,9.83
2022-11-17T15:20:13.864Z,12.30
2022-11-17T15:22:40.912Z,11.03
2022-11-17T15:25:08.421Z,11.93
2022-11-17T15:27:35.251Z,10.30
2022-11-17T15:30:02.377Z,9.17
2022-11-17T15:32:29.825Z,15.23
2022-11-17T15:34:56.755Z,10.77
2022-11-17T15:37:24.946Z,15.07
2022-11-17T15:39:51.790Z,12.13
2022-11-17T15:42:18.623Z,20.30
2022-11-17T15:44:45.529Z,18.47
2022-11-17T15:47:12.361Z,14.30
2022-11-17T15:49:39.289Z,15.23
2022-11-17T15:52:06.145Z,13.17
2022-11-17T15:54:33.084Z,12.40
2022-11-17T15:57:01.451Z,10.97
2022-11-17T15:59:28.288Z,14.93
2022-11-17T16:01:55.136Z,11.07
2022-11-17T16:04:21.957Z,6.07
2022-11-17T16:06:49.132Z,5.97
2022-11-17T16:09:16.374Z,6.60
2022-11-17T16:11:43.636Z,8.40
2022-11-17T16:14:11.823Z,7.80
2022-11-17T16:16:39.677Z,8.67
2022-11-17T16:19:07.125Z,6.63
2022-11-17T16:21:34.272Z,6.90
2022-11-17T16:24:02.142Z,5.17
2022-11-17T16:26:30.013Z,5.40
2022-11-17T16:29:06.040Z,7.20
2022-11-17T16:31:35.151Z,5.20
2022-11-17T16:34:11.903Z,8.20
2022-11-17T16:36:40.291Z,9.33
2022-11-17T16:39:10.039Z,7.87
2022-11-17T16:41:39.066Z,14.50
2022-11-17T16:44:12.385Z,8.40
2022-11-17T16:46:42.858Z,9.53
2022-11-17T16:49:11.738Z,9.43
2022-11-17T16:51:38.692Z,8.17
2022-11-17T16:54:07.218Z,9.00
2022-11-17T16:56:34.522Z,12.80
2022-11-17T16:59:01.885Z,9.60
2022-11-17T17:01:31.424Z,9.60
2022-11-17T17:04:04.103Z,7.80
2022-11-17T17:06:31.327Z,8.10
2022-11-17T17:09:02.893Z,12.50
2022-11-17T17:11:31.874Z,5.37
2022-11-17T17:14:01.232Z,5.30
2022-11-17T17:16:28.106Z,6.90
2022-11-17T17:19:00.417Z,9.13
2022-11-17T17:21:28.647Z,9.07
2022-11-17T17:23:56.357Z,4.53
2022-11-17T17:26:26.824Z,5.97
2022-11-17T17:28:56.286Z,3.60
2022-11-17T17:31:25.108Z,4.70
2022-11-17T17:33:52.802Z,3.40
2022-11-17T17:36:24.825Z,5.83
2022-11-17T17:38:56.262Z,3.87
2022-11-17T17:41:26.595Z,5.33
2022-11-17T17:44:04.981Z,3.63
2022-11-17T17:46:35.507Z,8.23
2022-11-17T17:49:02.567Z,16.10
2022-11-17T17:51:29.975Z,35.97
2022-11-17T17:54:00.876Z,43.87
2022-11-17T17:56:28.294Z,41.33
2022-11-17T17:58:56.130Z,26.00
2022-11-17T18:01:28.509Z,10.10
2022-11-17T18:04:04.481Z,12.40
2022-11-17T18:06:39.171Z,8.93
2022-11-17T18:09:07.562Z,6.83
2022-11-17T18:11:35.679Z,10.77
2022-11-17T18:14:03.515Z,7.43
2022-11-17T18:16:32.656Z,6.43
2022-11-17T18:19:04.336Z,8.63
2022-11-17T18:21:31.988Z,7.63
2022-11-17T18:24:01.210Z,11.03
2022-11-17T18:26:31.480Z,7.83
2022-11-17T18:29:00.775Z,6.80
2022-11-17T18:31:29.863Z,8.23
2022-11-17T18:33:59.185Z,4.27
2022-11-17T18:36:27.030Z,5.00
2022-11-17T18:38:54.166Z,6.97
2022-11-17T18:41:22.051Z,4.47
2022-11-17T18:43:51.167Z,6.07
2022-11-17T18:46:21.524Z,5.23
2022-11-17T18:48:51.798Z,6.13
2022-11-17T18:51:21.421Z,8.53
2022-11-17T18:53:49.782Z,6.93
2022-11-17T18:56:19.539Z,5.00
2022-11-17T18:58:46.702Z,6.80
2022-11-17T19:01:19.568Z,4.70
2022-11-17T19:03:49.033Z,6.80
2022-11-17T19:06:17.280Z,5.50
2022-11-17T19:08:44.152Z,7.30
2022-11-17T19:11:11.855Z,6.70
2022-11-17T19:13:40.204Z,9.47
2022-11-17T19:16:16.920Z,6.50
2022-11-17T19:18:45.532Z,15.37
2022-11-17T19:21:13.880Z,7.50
2022-11-17T19:23:44.418Z,8.70
2022-11-17T19:26:16.733Z,8.13
2022-11-17T19:28:44.400Z,8.73
2022-11-17T19:31:14.383Z,10.23
2022-11-17T19:33:41.889Z,10.03
2022-11-17T19:36:11.410Z,9.40
2022-11-17T19:38:38.797Z,10.33
2022-11-17T19:41:13.677Z,9.50
2022-11-17T19:43:45.044Z,7.73
2022-11-17T19:46:17.268Z,16.40
2022-11-17T19:48:44.631Z,9.57
2022-11-17T19:51:26.453Z,7.07
2022-11-17T19:53:56.594Z,8.20
2022-11-17T19:56:24.735Z,9.63
2022-11-17T19:58:52.317Z,6.33
2022-11-17T20:01:25.238Z,5.70
2022-11-17T20:03:52.615Z,5.13
2022-11-17T20:06:22.411Z,5.77
2022-11-17T20:08:49.580Z,6.37
2022-11-17T20:11:18.951Z,6.23
2022-11-17T20:13:46.419Z,7.97
2022-11-17T20:16:15.986Z,7.07
2022-11-17T20:18:44.554Z,9.67
2022-11-17T20:21:14.038Z,10.20
2022-11-17T20:23:43.470Z,9.40
2022-11-17T20:26:22.894Z,6.73
2022-11-17T20:28:49.875Z,5.00
2022-11-17T20:31:19.501Z,5.97
2022-11-17T20:33:48.095Z,4.13
2022-11-17T20:36:20.229Z,5.30
2022-11-17T20:38:55.754Z,4.20
2022-11-17T20:41:23.460Z,3.00
2022-11-17T20:43:52.108Z,6.57
2022-11-17T20:46:19.952Z,5.87
2022-11-17T20:48:47.418Z,4.90
2022-11-17T20:51:20.079Z,4.47
2022-11-17T20:53:47.461Z,4.67
2022-11-17T20:56:18.548Z,4.63
2022-11-17T20:58:46.017Z,3.20
2022-11-17T21:01:14.655Z,4.33
2022-11-17T21:03:42.230Z,4.10
2022-11-17T21:06:10.225Z,5.77
2022-11-17T21:08:39.097Z,4.63
2022-11-17T21:11:08.549Z,6.03
2022-11-17T21:13:36.729Z,7.63
2022-11-17T21:16:12.120Z,4.23
2022-11-17T21:18:44.333Z,3.27
2022-11-17T21:21:11.559Z,3.73
2022-11-17T21:23:40.138Z,3.03
2022-11-17T21:26:18.918Z,4.50
2022-11-17T21:28:47.189Z,3.43
2022-11-17T21:31:23.642Z,4.60
2022-11-17T21:34:14.934Z,2.47
2022-11-17T21:36:41.968Z,4.10
2022-11-17T21:39:09.078Z,6.33
2022-11-17T21:41:37.792Z,4.47
2022-11-17T21:44:05.100Z,3.80
2022-11-17T21:46:34.058Z,3.37
2022-11-17T21:49:01.582Z,2.40
2022-11-17T21:51:33.365Z,3.07
2022-11-17T21:54:03.369Z,2.30
2022-11-17T21:56:32.191Z,1.80
2022-11-17T21:59:01.001Z,2.03
2022-11-17T22:01:29.280Z,1.20
2022-11-17T22:03:56.390Z,3.77
2022-11-17T22:06:24.985Z,2.20
2022-11-17T22:08:53.064Z,2.03
2022-11-17T22:11:37.680Z,2.70
2022-11-17T22:14:19.457Z,4.20
2022-11-17T22:16:52.017Z,2.97
2022-11-17T22:19:21.070Z,1.93
2022-11-17T22:21:49.952Z,4.73
2022-11-17T22:24:17.742Z,2.10
2022-11-17T22:26:45.793Z,3.20
2022-11-17T22:29:19.105Z,5.00
2022-11-17T22:31:48.583Z,1.70
2022-11-17T22:34:16.013Z,2.80
2022-11-17T22:36:43.124Z,1.13
2022-11-17T22:39:09.985Z,1.57
2022-11-17T22:41:37.044Z,1.60
2022-11-17T22:44:04.486Z,1.13
2022-11-17T22:46:31.502Z,2.40
2022-11-17T22:48:58.544Z,3.67
2022-11-17T22:51:44.551Z,2.77
2022-11-17T22:54:11.773Z,2.60
2022-11-17T22:56:39.217Z,3.47
2022-11-17T22:59:06.065Z,1.73
2022-11-17T23:01:32.992Z,1.50
2022-11-17T23:04:00.421Z,2.47
2022-11-17T23:06:27.393Z,3.47
2022-11-17T23:08:55.717Z,2.40
2022-11-17T23:11:36.428Z,2.40
2022-11-17T23:14:05.525Z,2.40
2022-11-17T23:16:33.190Z,2.10
2022-11-17T23:19:00.198Z,3.50
2022-11-17T23:21:27.253Z,1.93
2022-11-17T23:23:54.160Z,3.27
2022-11-17T23:26:22.317Z,2.60
2022-11-17T23:28:49.500Z,3.60
2022-11-17T23:31:17.458Z,2.70
2022-11-17T23:33:46.628Z,2.43
2022-11-17T23:36:19.533Z,3.43
2022-11-17T23:38:47.325Z,2.97
2022-11-17T23:41:16.391Z,1.80
2022-11-17T23:43:43.498Z,0.83
2022-11-17T23:46:13.183Z,1.87
2022-11-17T23:48:40.669Z,1.80
2022-11-17T23:51:15.986Z,0.70
2022-11-17T23:53:43.520Z,0.60
2022-11-17T23:56:11.056Z,0.80
2022-11-17T23:58:38.287Z,0.70
